LFBZ 301030Z AUTO 34004KT 280V050 CAVOK 25/15 Q1014 NOSIG

ElémentsDécodage
LFBZ Station météo située sur l'aérodrome de BIARRITZ Bayonne-Anglet
301030Z émis le 30 du mois à 10h30 UTC
AUTO Bulletin édité par un automate
34004KT vent du 340°, 04 noeuds
280V050 vent de direction variable entre 280° et 050°
CAVOK Ceiling And Visibility OK
- Visibilité de 10 Km ou plus
- Pas de nuage au-dessous de 1500m ou au-dessous de l'altitude minimale du secteur la plus élevée (si>1500m) et absence de CB
- pas de temps présent significatif
25/15 température 25°C, point de rosée 15°C
 soit une humidité relative de 54%
Q1014 la pression au niveau de la mer (QNH) est de 1014 hPa
NOSIG Pas de changement significatif prévu au cours des deux heures suivant l'heure de l'observation